Time;durP1;ratioP1;P1;durP2;ratioP2;P2;SDS_P1;SDS_P2;PMS_P1;PMS_P2;Temp;Humidity;BMP_temperature;BMP_pressure;BME280_temperature;BME280_humidity;BME280_pressure;Samples;Min_cycle;Max_cycle;Signal;HPM_P1;HPM_P2
2021/10/17 00:00:45;;;;;;;24.83;22.93;;;6.00;99.90;;;;;;4885884;29;20666;-96
2021/10/17 00:03:13;;;;;;;24.03;22.00;;;6.00;99.90;;;;;;4899408;29;20641;-96
2021/10/17 00:05:40;;;;;;;27.43;25.03;;;6.00;99.90;;;;;;4883180;29;21314;-96
2021/10/17 00:08:11;;;;;;;27.27;24.87;;;6.10;99.90;;;;;;4874150;29;20971;-96
2021/10/17 00:10:39;;;;;;;29.40;26.80;;;6.10;99.90;;;;;;4888473;29;21211;-96
2021/10/17 00:13:08;;;;;;;27.90;25.60;;;6.20;99.90;;;;;;4869829;29;20734;-96
2021/10/17 00:15:38;;;;;;;30.47;27.57;;;6.10;99.90;;;;;;4885687;29;20629;-96
2021/10/17 00:18:10;;;;;;;194.83;46.07;;;6.10;99.90;;;;;;4852320;29;20650;-95
2021/10/17 00:20:38;;;;;;;62.53;34.23;;;6.20;99.90;;;;;;4884850;29;20770;-95
2021/10/17 00:23:14;;;;;;;61.10;33.63;;;6.20;99.90;;;;;;4894979;29;20689;-96
2021/10/17 00:25:47;;;;;;;86.37;38.40;;;6.20;99.90;;;;;;4889706;29;20712;-96
2021/10/17 00:28:15;;;;;;;54.60;32.33;;;6.30;99.90;;;;;;4884809;29;20713;-96
2021/10/17 00:30:42;;;;;;;77.70;33.83;;;6.20;99.90;;;;;;4882671;29;20726;-96
2021/10/17 00:33:12;;;;;;;138.43;37.60;;;6.10;99.90;;;;;;4879163;29;20777;-95
2021/10/17 00:35:41;;;;;;;132.40;40.50;;;6.10;99.90;;;;;;4887702;29;20638;-95
2021/10/17 00:38:10;;;;;;;37.13;30.07;;;6.10;99.90;;;;;;4877104;29;21180;-95
2021/10/17 00:40:37;;;;;;;34.30;29.43;;;6.10;99.90;;;;;;4877500;29;20700;-95
2021/10/17 00:43:06;;;;;;;30.40;27.70;;;6.20;99.90;;;;;;4873434;29;20785;-95
2021/10/17 00:45:36;;;;;;;30.93;27.93;;;6.20;99.90;;;;;;4873349;29;20666;-95
2021/10/17 00:48:04;;;;;;;31.90;29.00;;;6.30;99.90;;;;;;4868232;29;20737;-95
2021/10/17 00:50:34;;;;;;;30.53;27.37;;;6.20;99.90;;;;;;4878029;29;20630;-95
2021/10/17 00:53:02;;;;;;;70.00;29.70;;;6.20;99.90;;;;;;4879038;29;20768;-95
2021/10/17 00:55:30;;;;;;;29.43;26.63;;;6.40;99.90;;;;;;4866120;29;21051;-95
2021/10/17 00:58:00;;;;;;;30.00;27.40;;;6.30;99.90;;;;;;4876689;29;20633;-95
2021/10/17 01:00:28;;;;;;;29.80;25.80;;;6.20;99.90;;;;;;4883307;29;20703;-94
2021/10/17 01:02:55;;;;;;;28.93;26.07;;;6.20;99.90;;;;;;4877582;29;20761;-94
2021/10/17 01:05:28;;;;;;;29.10;26.40;;;6.20;99.90;;;;;;4874487;29;20695;-94
2021/10/17 01:07:57;;;;;;;28.70;26.00;;;6.30;99.90;;;;;;4870318;29;20751;-95
2021/10/17 01:10:27;;;;;;;29.63;26.63;;;6.30;99.90;;;;;;4869778;29;20743;-95
2021/10/17 01:12:54;;;;;;;28.37;25.90;;;6.30;99.90;;;;;;4879684;29;20669;-96
2021/10/17 01:15:22;;;;;;;28.03;25.43;;;6.30;99.90;;;;;;4869953;29;20636;-96
2021/10/17 01:17:49;;;;;;;28.30;25.57;;;6.40;99.90;;;;;;4888115;29;20668;-96
2021/10/17 01:26:49;;;;;;;22.87;21.07;;;6.50;99.90;;;;;;4921931;29;20614;-96
2021/10/17 01:29:24;;;;;;;25.03;22.93;;;6.40;99.90;;;;;;4921749;29;20654;-96
2021/10/17 01:32:08;;;;;;;23.30;21.10;;;6.40;99.90;;;;;;4895306;29;20710;-96
2021/10/17 01:40:46;;;;;;;23.97;21.97;;;6.50;99.90;;;;;;4919610;29;20712;-96
2021/10/17 01:43:22;;;;;;;24.57;22.13;;;6.40;99.90;;;;;;4903854;29;20668;-96
2021/10/17 01:45:49;;;;;;;27.47;22.40;;;6.40;99.90;;;;;;4899872;29;20732;-95
2021/10/17 01:48:16;;;;;;;52.13;26.20;;;6.30;99.90;;;;;;4903774;29;20642;-94
2021/10/17 01:50:45;;;;;;;55.60;25.17;;;6.40;99.90;;;;;;4896123;29;21008;-95
2021/10/17 01:53:12;;;;;;;206.60;32.03;;;6.40;99.90;;;;;;4897129;29;20680;-96
2021/10/17 01:55:39;;;;;;;64.87;27.00;;;6.30;99.90;;;;;;4905146;29;20649;-95
2021/10/17 01:58:06;;;;;;;103.03;27.50;;;6.30;99.90;;;;;;4900274;29;20625;-95
2021/10/17 02:00:35;;;;;;;295.50;37.60;;;6.30;99.90;;;;;;4889991;29;21036;-96
2021/10/17 02:03:02;;;;;;;153.80;31.70;;;6.30;99.90;;;;;;4900187;29;20770;-95
2021/10/17 02:05:36;;;;;;;33.77;25.13;;;6.20;99.90;;;;;;4876856;29;20740;-94
2021/10/17 02:08:05;;;;;;;96.97;29.00;;;6.20;99.90;;;;;;4888150;29;20684;-95
2021/10/17 02:10:33;;;;;;;98.50;28.27;;;6.20;99.90;;;;;;4886096;29;20697;-95
2021/10/17 02:13:01;;;;;;;288.40;36.97;;;6.20;99.90;;;;;;4886604;29;20667;-95
2021/10/17 02:15:40;;;;;;;93.40;29.50;;;6.20;99.90;;;;;;4902924;29;20709;-95
2021/10/17 02:18:07;;;;;;;38.43;26.73;;;6.20;99.90;;;;;;4896625;29;20678;-94
2021/10/17 02:20:36;;;;;;;57.70;27.27;;;6.20;99.90;;;;;;4898913;29;20661;-95
2021/10/17 02:23:04;;;;;;;35.40;27.20;;;6.30;99.90;;;;;;4896867;29;21158;-94
2021/10/17 02:25:31;;;;;;;43.83;27.10;;;6.20;99.90;;;;;;4897735;29;20724;-95
2021/10/17 02:27:58;;;;;;;56.40;26.93;;;6.20;99.90;;;;;;4894111;29;20670;-95
2021/10/17 02:30:26;;;;;;;69.90;30.83;;;6.20;99.90;;;;;;4893399;29;21073;-95
2021/10/17 02:32:55;;;;;;;35.27;28.90;;;6.20;99.90;;;;;;4889965;29;20760;-95
2021/10/17 02:35:25;;;;;;;30.30;25.67;;;6.20;99.90;;;;;;4896925;29;20650;-96
2021/10/17 02:37:52;;;;;;;36.43;25.93;;;6.20;99.90;;;;;;4903025;29;20665;-95
2021/10/17 02:40:19;;;;;;;28.00;25.60;;;6.30;99.90;;;;;;4888125;29;20656;-95
2021/10/17 02:42:46;;;;;;;26.10;23.90;;;6.30;99.90;;;;;;4894238;29;20619;-95
2021/10/17 02:45:13;;;;;;;26.00;23.90;;;6.20;99.90;;;;;;4894271;29;20733;-95
2021/10/17 02:47:41;;;;;;;28.00;25.50;;;6.30;99.90;;;;;;4898735;29;20660;-94
2021/10/17 02:50:11;;;;;;;26.30;23.90;;;6.30;99.90;;;;;;4902193;29;20634;-95
2021/10/17 02:52:38;;;;;;;22.07;20.27;;;6.40;99.90;;;;;;4907357;29;20652;-94
2021/10/17 02:55:06;;;;;;;25.20;23.00;;;6.40;99.90;;;;;;4898432;29;20635;-95
2021/10/17 02:57:34;;;;;;;24.83;22.87;;;6.40;99.90;;;;;;4895788;29;20650;-95
2021/10/17 03:00:01;;;;;;;22.67;20.53;;;6.30;99.90;;;;;;4899842;29;20702;-96
2021/10/17 03:05:28;;;;;;;20.57;18.97;;;6.30;99.90;;;;;;4895635;29;20680;-93
2021/10/17 03:07:55;;;;;;;20.77;19.07;;;6.30;99.90;;;;;;4900798;29;20669;-95
2021/10/17 03:10:23;;;;;;;20.93;19.10;;;6.30;99.90;;;;;;4891984;29;20640;-94
2021/10/17 03:12:50;;;;;;;22.97;21.07;;;6.40;99.90;;;;;;4893818;29;20634;-95
2021/10/17 03:15:17;;;;;;;20.93;19.23;;;6.40;99.90;;;;;;4896569;29;20619;-95
2021/10/17 03:17:44;;;;;;;23.73;21.50;;;6.40;99.90;;;;;;4899736;29;20658;-95
2021/10/17 03:20:12;;;;;;;21.40;19.77;;;6.40;99.90;;;;;;4894379;29;20655;-94
2021/10/17 03:22:40;;;;;;;22.30;20.50;;;6.40;99.90;;;;;;4890136;29;20667;-95
2021/10/17 03:25:08;;;;;;;22.00;20.10;;;6.40;99.90;;;;;;4893812;29;20750;-95
2021/10/17 03:27:35;;;;;;;22.40;20.60;;;6.40;99.90;;;;;;4889560;29;20744;-93
2021/10/17 03:30:05;;;;;;;23.40;21.60;;;6.50;99.90;;;;;;4877911;29;20614;-95
2021/10/17 03:32:33;;;;;;;22.33;20.60;;;6.40;99.90;;;;;;4900449;29;20679;-95
2021/10/17 03:35:04;;;;;;;24.33;22.40;;;6.40;99.90;;;;;;4898513;29;20654;-96
2021/10/17 03:37:32;;;;;;;23.50;21.63;;;6.40;99.90;;;;;;4892369;29;20671;-96
2021/10/17 04:24:15;;;;;;;22.30;20.60;;;6.40;99.90;;;;;;5106750;23;20754;-95
2021/10/17 04:27:02;;;;;;;21.50;19.73;;;6.50;99.90;;;;;;4937317;28;20656;-95
2021/10/17 04:29:44;;;;;;;21.50;19.80;;;6.60;99.90;;;;;;4937470;28;20651;-96
2021/10/17 04:32:44;;;;;;;22.37;20.60;;;6.60;99.90;;;;;;4943509;28;20660;-96
2021/10/17 05:08:22;;;;;;;19.80;18.33;;;6.70;99.90;;;;;;4901005;29;20617;-96
2021/10/17 05:11:11;;;;;;;21.07;19.20;;;6.60;99.90;;;;;;4904675;29;20613;-96
2021/10/17 05:35:00;;;;;;;21.17;19.47;;;6.40;99.90;;;;;;5690611;23;20685;-95
2021/10/17 05:40:07;;;;;;;23.00;21.30;;;6.40;99.90;;;;;;5035191;23;20737;-96
2021/10/17 05:42:35;;;;;;;20.67;18.97;;;6.40;99.90;;;;;;4941838;28;20625;-96
2021/10/17 05:45:03;;;;;;;22.17;20.47;;;6.40;99.90;;;;;;4932390;29;20665;-95
2021/10/17 05:47:36;;;;;;;21.33;19.63;;;6.40;99.90;;;;;;4929615;29;20682;-96
2021/10/17 05:50:09;;;;;;;22.17;20.10;;;6.40;99.90;;;;;;4917128;29;20643;-96
2021/10/17 06:06:01;;;;;;;20.47;18.87;;;6.30;99.90;;;;;;4939241;29;20660;-96
2021/10/17 06:08:46;;;;;;;20.30;18.67;;;6.20;99.90;;;;;;4914852;29;21141;-96
2021/10/17 06:11:16;;;;;;;19.23;17.73;;;6.30;99.90;;;;;;4923721;29;20656;-95
2021/10/17 06:13:43;;;;;;;19.57;18.07;;;6.20;99.90;;;;;;4915845;29;20672;-95
2021/10/17 06:22:06;;;;;;;18.90;17.30;;;6.20;99.90;;;;;;4908042;29;20687;-96
2021/10/17 06:24:36;;;;;;;19.10;17.60;;;6.30;99.90;;;;;;4906950;29;20656;-96
2021/10/17 06:27:06;;;;;;;20.57;18.87;;;6.40;99.90;;;;;;4902755;29;20986;-96
2021/10/17 06:29:40;;;;;;;21.43;19.63;;;6.40;99.90;;;;;;4904706;29;20641;-95
2021/10/17 06:32:09;;;;;;;19.33;17.80;;;6.40;99.90;;;;;;4909083;29;20653;-95
2021/10/17 07:05:12;;;;;;;24.30;22.40;;;7.40;99.90;;;;;;4940297;28;20540;-96
2021/10/17 07:28:56;;;;;;;21.87;20.17;;;8.20;99.90;;;;;;4901784;29;20983;-96
2021/10/17 14:31:54;;;;;;;20.63;18.80;;;13.20;99.90;;;;;;4913373;29;20618;-96
2021/10/17 14:37:25;;;;;;;23.10;20.97;;;12.80;99.90;;;;;;4885383;29;20642;-96
2021/10/17 18:33:13;;;;;;;34.20;30.80;;;9.90;99.90;;;;;;5009453;23;20684;-94
2021/10/17 18:35:51;;;;;;;36.40;32.87;;;9.90;99.90;;;;;;4922933;29;20646;-96
2021/10/17 18:42:13;;;;;;;39.83;35.67;;;9.90;99.90;;;;;;4935630;28;20621;-96
2021/10/17 21:56:33;;;;;;;29.10;26.43;;;9.00;99.90;;;;;;4895935;29;20673;-95
2021/10/17 21:59:39;;;;;;;27.90;25.10;;;9.00;99.90;;;;;;4904466;29;20669;-95
2021/10/17 22:02:12;;;;;;;30.53;27.53;;;9.00;99.90;;;;;;4861727;29;20657;-94
2021/10/17 22:04:42;;;;;;;30.50;27.60;;;9.00;99.90;;;;;;4862731;29;20658;-94
2021/10/17 22:07:16;;;;;;;27.03;24.50;;;9.00;99.90;;;;;;4874189;29;20684;-94
2021/10/17 22:09:44;;;;;;;28.47;25.67;;;9.10;99.90;;;;;;4862110;29;20673;-93
2021/10/17 22:13:11;;;;;;;29.00;26.23;;;9.10;99.90;;;;;;4842111;29;20651;-95
2021/10/17 22:16:08;;;;;;;27.60;24.97;;;9.10;99.90;;;;;;4807507;29;20722;-94
2021/10/17 22:18:37;;;;;;;26.20;23.80;;;9.10;99.90;;;;;;4823629;29;20642;-93
2021/10/17 22:21:13;;;;;;;28.03;25.40;;;9.00;99.90;;;;;;4864900;29;20769;-93
2021/10/17 22:24:04;;;;;;;29.20;26.27;;;9.10;99.90;;;;;;4856305;29;21236;-94
2021/10/17 22:26:56;;;;;;;27.67;24.87;;;9.10;99.90;;;;;;4866527;29;20702;-94
2021/10/17 22:29:26;;;;;;;28.40;25.70;;;9.10;99.90;;;;;;4855755;29;20988;-94
2021/10/17 22:32:01;;;;;;;29.40;26.50;;;9.10;99.90;;;;;;4866072;29;20671;-91
2021/10/17 22:38:32;;;;;;;29.10;25.00;;;9.20;99.90;;;;;;4731313;29;20645;-91
2021/10/17 22:44:39;;;;;;;28.30;25.57;;;9.20;99.90;;;;;;4848928;29;20631;-91
2021/10/17 22:50:18;;;;;;;29.13;26.30;;;9.20;99.90;;;;;;4850494;29;20661;-92
2021/10/17 22:59:05;;;;;;;30.43;27.33;;;9.40;99.90;;;;;;4816929;29;21066;-92
2021/10/17 23:22:39;;;;;;;32.20;28.90;;;9.20;99.90;;;;;;4800769;29;20639;-93
2021/10/17 23:28:36;;;;;;;30.97;28.17;;;9.00;99.90;;;;;;4758693;29;20693;-93
2021/10/17 23:31:04;;;;;;;31.17;27.87;;;9.00;99.90;;;;;;4812621;29;20677;-91
2021/10/17 23:33:34;;;;;;;31.90;28.73;;;9.00;99.90;;;;;;4812946;29;20659;-92
2021/10/17 23:36:06;;;;;;;32.00;28.90;;;8.80;99.90;;;;;;4845569;29;20703;-92
2021/10/17 23:38:40;;;;;;;31.37;28.17;;;8.90;99.90;;;;;;4868896;29;21259;-92
2021/10/17 23:41:07;;;;;;;30.30;27.10;;;8.70;99.90;;;;;;4866525;29;20663;-91
2021/10/17 23:43:38;;;;;;;29.97;27.17;;;8.60;99.90;;;;;;4872813;29;21034;-91
2021/10/17 23:46:11;;;;;;;32.17;28.87;;;8.40;99.90;;;;;;4870858;29;20989;-93
2021/10/17 23:48:39;;;;;;;30.97;27.67;;;8.30;99.90;;;;;;4870433;29;21051;-92
2021/10/17 23:51:06;;;;;;;30.60;27.63;;;8.20;99.90;;;;;;4848134;29;21061;-92
2021/10/17 23:53:36;;;;;;;32.50;29.00;;;8.20;99.90;;;;;;4865414;29;20997;-92
2021/10/17 23:56:06;;;;;;;31.00;27.73;;;8.10;99.90;;;;;;4868899;29;20664;-92
2021/10/17 23:58:40;;;;;;;30.17;27.27;;;8.00;99.90;;;;;;4868451;29;20734;-92
